Time;durP1;ratioP1;P1;durP2;ratioP2;P2;SDS_P1;SDS_P2;PMS_P1;PMS_P2;Temp;Humidity;BMP_temperature;BMP_pressure;BME280_temperature;BME280_humidity;BME280_pressure;Samples;Min_cycle;Max_cycle;Signal;HPM_P1;HPM_P2
2023/03/22 00:00:53;;;;;;;;;;;9.90;99.90;;;;;;8380412;28;19935;-69
2023/03/22 00:04:54;;;;;;;;;;;9.90;99.90;;;;;;8382122;28;20366;-69
2023/03/22 00:08:56;;;;;;;;;;;9.80;99.90;;;;;;8401134;28;19929;-70
2023/03/22 00:17:56;;;;;;;;;;;9.70;99.90;;;;;;8383321;28;19923;-69
2023/03/22 00:21:59;;;;;;;;;;;9.70;99.90;;;;;;8377378;28;19963;-69
2023/03/22 00:26:01;;;;;;;;;;;9.60;99.90;;;;;;8378656;28;19986;-69
2023/03/22 00:30:03;;;;;;;;;;;9.60;99.90;;;;;;8380929;28;20337;-69
2023/03/22 00:34:05;;;;;;;;;;;9.50;99.90;;;;;;8379970;28;20256;-69
2023/03/22 00:38:12;;;;;;;;;;;9.50;99.90;;;;;;8389043;28;19924;-69
2023/03/22 00:42:14;;;;;;;;;;;9.40;99.90;;;;;;8371221;28;19936;-69
2023/03/22 00:46:17;;;;;;;;;;;9.40;99.90;;;;;;8386024;28;19931;-69
2023/03/22 00:50:19;;;;;;;;;;;9.40;99.90;;;;;;8379049;28;20015;-69
2023/03/22 00:54:20;;;;;;;;;;;9.40;99.90;;;;;;8400075;28;19924;-69
2023/03/22 00:58:22;;;;;;;;;;;9.40;99.90;;;;;;8383343;28;19936;-69
2023/03/22 01:02:28;;;;;;;;;;;9.40;99.90;;;;;;8377884;28;19968;-69
2023/03/22 01:06:30;;;;;;;;;;;9.40;99.90;;;;;;8361798;28;19932;-69
2023/03/22 01:10:32;;;;;;;;;;;9.40;99.90;;;;;;8375565;28;19928;-69
2023/03/22 01:14:34;;;;;;;;;;;9.40;99.90;;;;;;8387106;28;19936;-69
2023/03/22 01:18:36;;;;;;;;;;;9.40;99.90;;;;;;8368452;28;19936;-69
2023/03/22 01:22:37;;;;;;;;;;;9.40;99.90;;;;;;8390540;28;19975;-69
2023/03/22 01:26:39;;;;;;;;;;;9.40;99.90;;;;;;8371729;28;20343;-69
2023/03/22 01:30:41;;;;;;;;;;;9.40;99.90;;;;;;8386583;28;20046;-69
2023/03/22 01:34:43;;;;;;;;;;;9.40;99.90;;;;;;8377324;28;19924;-69
2023/03/22 01:38:44;;;;;;;;;;;9.40;99.90;;;;;;8381533;28;19983;-69
2023/03/22 01:42:46;;;;;;;;;;;9.40;99.90;;;;;;8371384;28;19925;-69
2023/03/22 01:46:49;;;;;;;;;;;9.40;99.90;;;;;;8392695;28;19951;-69
2023/03/22 01:50:56;;;;;;;;;;;9.40;99.90;;;;;;8381556;28;19971;-69
2023/03/22 01:54:58;;;;;;;;;;;9.40;99.90;;;;;;8385838;28;19931;-69
2023/03/22 01:59:00;;;;;;;;;;;9.50;99.90;;;;;;8385497;28;19924;-69
2023/03/22 02:13:37;;;;;;;;;;;9.60;99.90;;;;;;8364533;28;20407;-69
2023/03/22 02:18:00;;;;;;;;;;;9.60;99.90;;;;;;8382833;28;19925;-69
2023/03/22 02:22:12;;;;;;;;;;;9.60;99.90;;;;;;8374829;28;19931;-69
2023/03/22 02:26:23;;;;;;;;;;;9.60;99.90;;;;;;8387002;28;19933;-69
2023/03/22 02:30:40;;;;;;;;;;;9.70;99.90;;;;;;8389246;28;20319;-70
2023/03/22 02:34:42;;;;;;;;;;;9.70;99.90;;;;;;8374716;28;19924;-69
2023/03/22 02:38:47;;;;;;;;;;;9.70;99.90;;;;;;8373720;28;19924;-69
2023/03/22 02:42:54;;;;;;;;;;;9.70;99.90;;;;;;8372539;28;19924;-69
2023/03/22 02:47:01;;;;;;;;;;;9.80;99.90;;;;;;8386742;28;19932;-69
2023/03/22 02:55:58;;;;;;;;;;;9.80;99.90;;;;;;8325673;28;19980;-69
2023/03/22 03:00:01;;;;;;;;;;;9.90;99.90;;;;;;8354531;28;19925;-69
2023/03/22 03:04:04;;;;;;;;;;;9.90;99.90;;;;;;8322060;28;19929;-69
2023/03/22 03:08:06;;;;;;;;;;;10.00;99.90;;;;;;8346561;28;19925;-70
2023/03/22 03:12:12;;;;;;;;;;;10.00;99.90;;;;;;8328483;28;19925;-69
2023/03/22 03:16:16;;;;;;;;;;;10.00;99.90;;;;;;8322786;28;19935;-69
2023/03/22 03:20:17;;;;;;;;;;;10.00;99.90;;;;;;8319598;28;20289;-69
2023/03/22 03:24:34;;;;;;;;;;;10.00;99.90;;;;;;8318249;28;19926;-69
2023/03/22 03:28:48;;;;;;;;;;;10.00;99.90;;;;;;8319728;28;19929;-69
2023/03/22 03:32:52;;;;;;;;;;;10.00;99.90;;;;;;8308361;28;19980;-69
2023/03/22 03:36:59;;;;;;;;;;;10.00;99.90;;;;;;8334941;28;19933;-69
2023/03/22 03:41:02;;;;;;;;;;;10.00;99.90;;;;;;8313650;28;19925;-69
2023/03/22 03:45:05;;;;;;;;;;;10.10;99.90;;;;;;8320542;28;19926;-69
2023/03/22 03:49:07;;;;;;;;;;;10.10;99.90;;;;;;8325027;28;19940;-69
2023/03/22 03:53:09;;;;;;;;;;;10.10;99.90;;;;;;8338916;28;19936;-69
2023/03/22 03:57:10;;;;;;;;;;;10.10;99.90;;;;;;8369598;28;19925;-69
2023/03/22 04:01:12;;;;;;;;;;;10.10;99.90;;;;;;8381462;28;19934;-69
2023/03/22 04:05:14;;;;;;;;;;;10.10;99.90;;;;;;8383460;28;20395;-69
2023/03/22 04:09:16;;;;;;;;;;;10.10;99.90;;;;;;8389407;28;20399;-69
2023/03/22 04:13:20;;;;;;;;;;;10.10;99.90;;;;;;8372928;28;19924;-69
2023/03/22 04:17:22;;;;;;;;;;;10.20;99.90;;;;;;8380858;28;19986;-69
2023/03/22 04:21:23;;;;;;;;;;;10.20;99.90;;;;;;8366004;28;19931;-69
2023/03/22 04:25:29;;;;;;;;;;;10.20;99.90;;;;;;8383585;28;20182;-69
2023/03/22 04:29:31;;;;;;;;;;;10.20;99.90;;;;;;8381362;28;19924;-69
2023/03/22 04:33:38;;;;;;;;;;;10.20;99.90;;;;;;8404437;28;19925;-69
2023/03/22 04:37:41;;;;;;;;;;;10.20;99.90;;;;;;8363890;28;20380;-69
2023/03/22 04:41:43;;;;;;;;;;;10.20;99.90;;;;;;8378329;28;20018;-69
2023/03/22 04:45:45;;;;;;;;;;;10.20;99.90;;;;;;8389394;28;19924;-69
2023/03/22 04:49:46;;;;;;;;;;;10.20;99.90;;;;;;8390155;28;19924;-69
2023/03/22 04:53:48;;;;;;;;;;;10.20;99.90;;;;;;8379854;28;19929;-69
2023/03/22 04:57:50;;;;;;;;;;;10.20;99.90;;;;;;8388380;28;20176;-69
2023/03/22 05:01:51;;;;;;;;;;;10.20;99.90;;;;;;8397794;28;19929;-69
2023/03/22 05:05:57;;;;;;;;;;;10.20;99.90;;;;;;8387936;28;19924;-69
2023/03/22 05:09:59;;;;;;;;;;;10.20;99.90;;;;;;8381981;28;19936;-69
2023/03/22 05:14:01;;;;;;;;;;;10.20;99.90;;;;;;8367394;28;19931;-69
2023/03/22 05:18:02;;;;;;;;;;;10.20;99.90;;;;;;8385515;28;20376;-69
2023/03/22 05:22:04;;;;;;;;;;;10.10;99.90;;;;;;8384021;28;19924;-69
2023/03/22 05:26:07;;;;;;;;;;;10.10;99.90;;;;;;8378519;28;19935;-69
2023/03/22 05:30:09;;;;;;;;;;;10.10;99.90;;;;;;8394958;28;19931;-70
2023/03/22 05:34:10;;;;;;;;;;;10.00;99.90;;;;;;8389789;28;20383;-69
2023/03/22 05:38:12;;;;;;;;;;;10.00;99.90;;;;;;8396389;28;19930;-69
2023/03/22 05:42:13;;;;;;;;;;;10.00;99.90;;;;;;8372040;28;19925;-70
2023/03/22 05:46:15;;;;;;;;;;;10.00;99.90;;;;;;8372564;28;19959;-69
2023/03/22 05:50:18;;;;;;;;;;;9.90;99.90;;;;;;8362171;28;19924;-69
2023/03/22 05:54:20;;;;;;;;;;;9.90;99.90;;;;;;8383352;28;19932;-70
2023/03/22 05:58:23;;;;;;;;;;;9.90;99.90;;;;;;8382632;28;20015;-70
2023/03/22 06:02:25;;;;;;;;;;;9.90;99.90;;;;;;8366508;28;19981;-70
2023/03/22 06:06:27;;;;;;;;;;;9.90;99.90;;;;;;8379125;28;19928;-69
2023/03/22 06:10:29;;;;;;;;;;;9.90;99.90;;;;;;8385691;28;19932;-69
2023/03/22 06:14:30;;;;;;;;;;;9.90;99.90;;;;;;8385493;28;19975;-69
2023/03/22 06:18:32;;;;;;;;;;;9.90;99.90;;;;;;8371695;28;19968;-69
2023/03/22 06:22:34;;;;;;;;;;;9.90;99.90;;;;;;8374777;28;19932;-69
2023/03/22 06:26:36;;;;;;;;;;;10.00;99.90;;;;;;8370966;28;20316;-69
2023/03/22 06:30:39;;;;;;;;;;;10.00;99.90;;;;;;8402676;28;19974;-69
2023/03/22 06:34:42;;;;;;;;;;;10.00;99.90;;;;;;8390419;28;19932;-69
2023/03/22 06:38:43;;;;;;;;;;;10.10;99.90;;;;;;8370074;28;20333;-69
2023/03/22 06:42:45;;;;;;;;;;;10.20;99.90;;;;;;8382046;28;20273;-69
2023/03/22 06:46:46;;;;;;;;;;;10.30;99.90;;;;;;8387726;28;19975;-69
2023/03/22 06:50:48;;;;;;;;;;;10.40;99.90;;;;;;8394437;28;19969;-69
2023/03/22 06:54:50;;;;;;;;;;;10.50;99.90;;;;;;8391156;28;20020;-69
2023/03/22 06:58:53;;;;;;;;;;;10.60;99.90;;;;;;8391081;28;19938;-69
2023/03/22 07:02:55;;;;;;;;;;;10.70;99.90;;;;;;8388133;28;20476;-70
2023/03/22 07:06:56;;;;;;;;;;;10.70;99.90;;;;;;8390405;28;19929;-69
2023/03/22 07:10:58;;;;;;;;;;;10.70;99.90;;;;;;8395753;28;19974;-69
2023/03/22 07:14:59;;;;;;;;;;;10.70;99.90;;;;;;8381453;28;19932;-69
2023/03/22 07:19:02;;;;;;;;;;;10.60;99.90;;;;;;8386063;28;19959;-69
2023/03/22 07:23:03;;;;;;;;;;;10.60;99.90;;;;;;8371841;28;20031;-69
2023/03/22 07:27:05;;;;;;;;;;;10.60;99.90;;;;;;8388018;28;19971;-69
2023/03/22 07:31:10;;;;;;;;;;;10.70;99.90;;;;;;8391555;28;19932;-69
2023/03/22 07:35:12;;;;;;;;;;;10.80;99.90;;;;;;8388763;28;19931;-69
2023/03/22 07:39:13;;;;;;;;;;;10.90;99.90;;;;;;8383452;28;19925;-69
2023/03/22 07:43:15;;;;;;;;;;;10.90;99.90;;;;;;8381855;28;19928;-69
2023/03/22 07:47:17;;;;;;;;;;;11.00;99.90;;;;;;8372537;28;19928;-69
2023/03/22 07:51:31;;;;;;;;;;;11.00;99.90;;;;;;8391016;28;19924;-69
2023/03/22 07:55:33;;;;;;;;;;;11.00;99.90;;;;;;8389024;28;20293;-69
2023/03/22 07:59:34;;;;;;;;;;;11.10;99.90;;;;;;8371472;28;19925;-69
2023/03/22 08:03:38;;;;;;;;;;;11.10;99.90;;;;;;8387566;28;19978;-69
2023/03/22 08:07:40;;;;;;;;;;;11.20;99.90;;;;;;8388052;28;19924;-68
2023/03/22 08:11:41;;;;;;;;;;;11.40;99.90;;;;;;8387971;28;19924;-69
2023/03/22 08:15:43;;;;;;;;;;;11.60;99.90;;;;;;8373472;28;20370;-69
2023/03/22 08:19:45;;;;;;;;;;;11.70;99.90;;;;;;8386551;28;19924;-69
2023/03/22 08:23:46;;;;;;;;;;;11.70;99.90;;;;;;8367944;28;20200;-69
2023/03/22 08:27:50;;;;;;;;;;;11.70;99.90;;;;;;8386746;28;20376;-69
2023/03/22 08:31:51;;;;;;;;;;;11.60;99.90;;;;;;8389143;28;20029;-69
2023/03/22 08:36:03;;;;;;;;;;;11.60;99.90;;;;;;8387292;28;20318;-69
2023/03/22 08:40:07;;;;;;;;;;;11.60;99.90;;;;;;8397770;28;20311;-69
2023/03/22 08:44:09;;;;;;;;;;;11.60;99.90;;;;;;8382409;28;20303;-69
2023/03/22 08:48:11;;;;;;;;;;;11.70;99.90;;;;;;8382122;28;19960;-68
2023/03/22 08:52:12;;;;;;;;;;;11.80;99.90;;;;;;8373168;28;19975;-69
2023/03/22 08:56:15;;;;;;;;;;;11.90;99.90;;;;;;8385926;28;19924;-69
2023/03/22 09:00:32;;;;;;;;;;;11.90;99.90;;;;;;8390172;28;20015;-69
2023/03/22 09:04:48;;;;;;;;;;;11.80;99.90;;;;;;8366434;28;19932;-69
2023/03/22 09:08:51;;;;;;;;;;;11.70;99.90;;;;;;8387500;28;20364;-69
2023/03/22 09:12:52;;;;;;;;;;;11.70;99.90;;;;;;8389331;28;19972;-69
2023/03/22 09:16:54;;;;;;;;;;;11.70;99.90;;;;;;8365732;28;19928;-68
2023/03/22 09:20:56;;;;;;;;;;;11.70;99.90;;;;;;8387968;28;19925;-69
2023/03/22 09:24:57;;;;;;;;;;;11.70;99.90;;;;;;8388029;28;19929;-69
2023/03/22 09:28:59;;;;;;;;;;;11.70;99.90;;;;;;8385711;28;19931;-69
2023/03/22 09:33:01;;;;;;;;;;;11.60;99.90;;;;;;8385165;28;19971;-69
2023/03/22 09:37:03;;;;;;;;;;;11.50;99.90;;;;;;8381386;28;20383;-69
2023/03/22 09:41:06;;;;;;;;;;;11.30;99.90;;;;;;8381808;28;19932;-68
2023/03/22 09:45:14;;;;;;;;;;;11.10;99.90;;;;;;8388519;28;19928;-68
2023/03/22 09:49:25;;;;;;;;;;;10.90;99.90;;;;;;8392653;28;19931;-68
2023/03/22 09:53:27;;;;;;;;;;;10.80;99.90;;;;;;8382219;28;20002;-69
2023/03/22 09:57:33;;;;;;;;;;;10.70;99.90;;;;;;8384866;28;19931;-69
2023/03/22 10:01:36;;;;;;;;;;;10.60;99.90;;;;;;8382449;28;19924;-69
2023/03/22 10:05:41;;;;;;;;;;;10.60;99.90;;;;;;8383021;28;19951;-69
2023/03/22 10:09:56;;;;;;;;;;;10.60;99.90;;;;;;8406564;28;20291;-68
2023/03/22 10:14:22;;;;;;;;;;;10.60;99.90;;;;;;8380616;28;19956;-68
2023/03/22 10:18:24;;;;;;;;;;;10.70;99.90;;;;;;8381104;28;19960;-69
2023/03/22 10:22:28;;;;;;;;;;;10.80;99.90;;;;;;8385027;28;19940;-69
2023/03/22 10:26:35;;;;;;;;;;;10.80;99.90;;;;;;8366502;28;19974;-69
2023/03/22 10:30:39;;;;;;;;;;;10.80;99.90;;;;;;8387252;28;19925;-69
2023/03/22 10:34:42;;;;;;;;;;;10.80;99.90;;;;;;8397059;28;20383;-69
2023/03/22 10:59:03;;;;;;;;;;;10.80;99.90;;;;;;8366186;28;19965;-69
2023/03/22 11:03:05;;;;;;;;;;;10.80;99.90;;;;;;8386678;28;20027;-69
2023/03/22 11:07:13;;;;;;;;;;;10.90;99.90;;;;;;8400372;28;19925;-69
2023/03/22 11:11:35;;;;;;;;;;;11.00;99.90;;;;;;8389475;28;19959;-69
2023/03/22 11:16:00;;;;;;;;;;;11.10;99.90;;;;;;8387451;28;19924;-69
2023/03/22 11:20:05;;;;;;;;;;;11.20;99.90;;;;;;8391248;28;19924;-69
2023/03/22 11:24:11;;;;;;;;;;;11.20;99.90;;;;;;8392623;28;19928;-69
2023/03/22 11:28:17;;;;;;;;;;;11.20;99.90;;;;;;8388457;28;20442;-69
2023/03/22 11:32:21;;;;;;;;;;;11.20;99.90;;;;;;8377355;28;19939;-68
2023/03/22 11:36:23;;;;;;;;;;;11.20;99.90;;;;;;8383962;28;19964;-69
2023/03/22 11:40:26;;;;;;;;;;;11.30;99.90;;;;;;8374899;28;19976;-69
2023/03/22 11:44:32;;;;;;;;;;;11.40;99.90;;;;;;8358448;28;19928;-69
2023/03/22 11:48:34;;;;;;;;;;;11.40;99.90;;;;;;8362125;28;20446;-69
2023/03/22 11:52:36;;;;;;;;;;;11.50;99.90;;;;;;8361424;28;20404;-69
2023/03/22 11:56:44;;;;;;;;;;;11.50;99.90;;;;;;8359694;28;20293;-69
2023/03/22 12:00:51;;;;;;;;;;;11.50;99.90;;;;;;8361018;28;19971;-69
2023/03/22 12:05:19;;;;;;;;;;;11.50;99.90;;;;;;8359744;28;20413;-69
2023/03/22 12:09:39;;;;;;;;;;;11.40;99.90;;;;;;8357918;28;19950;-69
2023/03/22 12:13:47;;;;;;;;;;;11.40;99.90;;;;;;8359974;28;19933;-69
2023/03/22 12:17:49;;;;;;;;;;;11.40;99.90;;;;;;8373686;28;20291;-69
2023/03/22 12:21:51;;;;;;;;;;;11.40;99.90;;;;;;8371722;28;19929;-69
2023/03/22 12:25:56;;;;;;;;;;;11.50;99.90;;;;;;8340383;28;20051;-69
2023/03/22 12:30:01;;;;;;;;;;;11.50;99.90;;;;;;8361469;28;20015;-69
2023/03/22 12:34:11;;;;;;;;;;;11.50;99.90;;;;;;8359069;28;20380;-69
2023/03/22 12:38:28;;;;;;;;;;;11.50;99.90;;;;;;8353042;28;19986;-69
2023/03/22 12:42:34;;;;;;;;;;;11.60;99.90;;;;;;8341633;28;19932;-69
2023/03/22 12:46:48;;;;;;;;;;;11.60;99.90;;;;;;8359873;28;20015;-69
2023/03/22 12:50:51;;;;;;;;;;;11.60;99.90;;;;;;8357756;28;19934;-69
2023/03/22 12:54:55;;;;;;;;;;;11.60;99.90;;;;;;8345822;28;19983;-69
2023/03/22 12:59:00;;;;;;;;;;;11.60;99.90;;;;;;8357744;28;20369;-69
2023/03/22 13:03:07;;;;;;;;;;;11.60;99.90;;;;;;8356767;28;20004;-69
2023/03/22 13:07:15;;;;;;;;;;;11.70;99.90;;;;;;8353865;28;19931;-69
2023/03/22 13:11:21;;;;;;;;;;;11.70;99.90;;;;;;8355364;28;20357;-69
2023/03/22 13:15:37;;;;;;;;;;;11.70;99.90;;;;;;8344458;28;19924;-69
2023/03/22 13:19:50;;;;;;;;;;;11.70;99.90;;;;;;8340071;28;19932;-69
2023/03/22 13:24:03;;;;;;;;;;;11.80;99.90;;;;;;8356426;28;19933;-69
2023/03/22 13:28:24;;;;;;;;;;;11.80;99.90;;;;;;8353827;28;19924;-69
2023/03/22 13:32:32;;;;;;;;;;;11.70;99.90;;;;;;8338820;28;19931;-69
2023/03/22 13:36:36;;;;;;;;;;;11.80;99.90;;;;;;8373528;28;19933;-68
2023/03/22 13:40:56;;;;;;;;;;;11.90;99.90;;;;;;8337407;28;19924;-69
2023/03/22 13:45:02;;;;;;;;;;;11.90;99.90;;;;;;8357336;28;19939;-69
2023/03/22 13:49:19;;;;;;;;;;;11.90;99.90;;;;;;8357542;28;20027;-69
2023/03/22 13:53:28;;;;;;;;;;;11.90;99.90;;;;;;8357806;28;20395;-69
2023/03/22 13:57:57;;;;;;;;;;;11.90;99.90;;;;;;8340069;28;20427;-69
2023/03/22 14:02:12;;;;;;;;;;;11.90;99.90;;;;;;8355229;28;20146;-68
2023/03/22 14:06:24;;;;;;;;;;;11.90;99.90;;;;;;8356158;28;19943;-69
2023/03/22 14:10:31;;;;;;;;;;;11.80;99.90;;;;;;8353622;28;19937;-69
2023/03/22 14:14:40;;;;;;;;;;;11.70;99.90;;;;;;8355938;28;20091;-69
2023/03/22 14:18:43;;;;;;;;;;;11.60;99.90;;;;;;8352615;28;19925;-69
2023/03/22 14:22:50;;;;;;;;;;;11.50;99.90;;;;;;8358633;28;19924;-69
2023/03/22 14:26:52;;;;;;;;;;;11.60;99.90;;;;;;8353806;28;19913;-69
2023/03/22 14:30:53;;;;;;;;;;;11.60;99.90;;;;;;8356615;28;20353;-69
2023/03/22 14:35:09;;;;;;;;;;;11.70;99.90;;;;;;8355922;28;19943;-69
2023/03/22 14:39:21;;;;;;;;;;;11.80;99.90;;;;;;8338403;28;19983;-69
2023/03/22 14:43:22;;;;;;;;;;;11.80;99.90;;;;;;8355673;28;19917;-69
2023/03/22 14:47:27;;;;;;;;;;;11.70;99.90;;;;;;8357931;28;20386;-69
2023/03/22 14:51:35;;;;;;;;;;;11.70;99.90;;;;;;8329306;28;20408;-69
2023/03/22 14:55:39;;;;;;;;;;;11.70;99.90;;;;;;8330728;28;19959;-69
2023/03/22 14:59:42;;;;;;;;;;;11.80;99.90;;;;;;8353055;28;19933;-69
2023/03/22 15:03:44;;;;;;;;;;;11.70;99.90;;;;;;8375789;28;20364;-69
2023/03/22 15:08:05;;;;;;;;;;;11.70;99.90;;;;;;8330605;28;20280;-69
2023/03/22 15:12:06;;;;;;;;;;;11.80;99.90;;;;;;8328837;28;19921;-69
2023/03/22 15:16:08;;;;;;;;;;;11.80;99.90;;;;;;8344252;28;20028;-69
2023/03/22 15:20:12;;;;;;;;;;;11.80;99.90;;;;;;8344167;28;19924;-69
2023/03/22 15:24:26;;;;;;;;;;;11.70;99.90;;;;;;8329439;28;20379;-69
2023/03/22 15:28:28;;;;;;;;;;;11.70;99.90;;;;;;8343254;28;20384;-69
2023/03/22 15:32:29;;;;;;;;;;;11.70;99.90;;;;;;8344991;28;19928;-69
2023/03/22 15:36:31;;;;;;;;;;;11.60;99.90;;;;;;8345081;28;19929;-69
2023/03/22 15:40:37;;;;;;;;;;;11.70;99.90;;;;;;8340884;28;19925;-69
2023/03/22 15:44:39;;;;;;;;;;;11.70;99.90;;;;;;8341152;28;20335;-69
2023/03/22 15:48:52;;;;;;;;;;;11.80;99.90;;;;;;8341050;28;19921;-69
2023/03/22 15:52:58;;;;;;;;;;;11.90;99.90;;;;;;8341618;28;19928;-70
2023/03/22 15:57:06;;;;;;;;;;;11.90;99.90;;;;;;8338496;28;20353;-69
2023/03/22 16:01:12;;;;;;;;;;;11.80;99.90;;;;;;8341967;28;20016;-69
2023/03/22 16:05:13;;;;;;;;;;;11.80;99.90;;;;;;8343044;28;19928;-69
2023/03/22 16:09:14;;;;;;;;;;;11.80;99.90;;;;;;8345063;28;19921;-69
2023/03/22 16:13:19;;;;;;;;;;;11.70;99.90;;;;;;8340725;28;20441;-69
2023/03/22 16:17:21;;;;;;;;;;;11.70;99.90;;;;;;8335670;28;19964;-69
2023/03/22 16:21:30;;;;;;;;;;;11.60;99.90;;;;;;8355977;28;19921;-69
2023/03/22 16:25:32;;;;;;;;;;;11.60;99.90;;;;;;8340134;28;19932;-69
2023/03/22 16:29:32;;;;;;;;;;;11.50;99.90;;;;;;8356369;28;20016;-70
2023/03/22 16:33:33;;;;;;;;;;;11.50;99.90;;;;;;8332490;28;19921;-69
2023/03/22 16:37:34;;;;;;;;;;;11.50;99.90;;;;;;8337203;28;19925;-69
2023/03/22 16:41:38;;;;;;;;;;;11.50;99.90;;;;;;8335503;28;20371;-69
2023/03/22 16:45:38;;;;;;;;;;;11.50;99.90;;;;;;8339135;28;19920;-69
2023/03/22 16:49:39;;;;;;;;;;;11.50;99.90;;;;;;8334163;28;20415;-69
2023/03/22 16:53:40;;;;;;;;;;;11.50;99.90;;;;;;8338680;28;19928;-69
2023/03/22 16:57:40;;;;;;;;;;;11.40;99.90;;;;;;8368736;28;19936;-69
2023/03/22 17:01:43;;;;;;;;;;;11.40;99.90;;;;;;8338302;28;19925;-69
2023/03/22 17:05:44;;;;;;;;;;;11.40;99.90;;;;;;8335783;28;19925;-69
2023/03/22 17:09:44;;;;;;;;;;;11.40;99.90;;;;;;8331051;28;19928;-69
2023/03/22 17:13:45;;;;;;;;;;;11.40;99.90;;;;;;8317466;28;20396;-69
2023/03/22 17:17:45;;;;;;;;;;;11.30;99.90;;;;;;8332865;28;19929;-69
2023/03/22 17:21:46;;;;;;;;;;;11.40;99.90;;;;;;8334955;28;19971;-69
2023/03/22 17:25:47;;;;;;;;;;;11.30;99.90;;;;;;8339420;28;19924;-69
2023/03/22 17:29:48;;;;;;;;;;;11.30;99.90;;;;;;8335305;28;19931;-68
2023/03/22 17:33:51;;;;;;;;;;;11.40;99.90;;;;;;8336280;28;19956;-69
2023/03/22 17:37:52;;;;;;;;;;;11.40;99.90;;;;;;8332137;28;19931;-69
2023/03/22 17:41:53;;;;;;;;;;;11.40;99.90;;;;;;8318392;28;19931;-69
2023/03/22 17:45:53;;;;;;;;;;;11.40;99.90;;;;;;8332486;28;20007;-69
2023/03/22 17:49:54;;;;;;;;;;;11.40;99.90;;;;;;8334957;28;19925;-69
2023/03/22 17:53:55;;;;;;;;;;;11.40;99.90;;;;;;8332177;28;19932;-69
2023/03/22 17:57:56;;;;;;;;;;;11.40;99.90;;;;;;8362944;28;20012;-69
2023/03/22 18:01:56;;;;;;;;;;;11.30;99.90;;;;;;8331565;28;20331;-69
2023/03/22 18:05:57;;;;;;;;;;;11.30;99.90;;;;;;8336625;28;19935;-68
2023/03/22 18:09:58;;;;;;;;;;;11.30;99.90;;;;;;8319506;28;20028;-68
2023/03/22 18:13:58;;;;;;;;;;;11.30;99.90;;;;;;8339835;28;20062;-69
2023/03/22 18:17:59;;;;;;;;;;;11.30;99.90;;;;;;8332098;28;19935;-69
2023/03/22 18:22:00;;;;;;;;;;;11.30;99.90;;;;;;8338534;28;20062;-68
2023/03/22 18:26:02;;;;;;;;;;;11.30;99.90;;;;;;8333183;28;19931;-68
2023/03/22 18:30:03;;;;;;;;;;;11.30;99.90;;;;;;8332618;28;20059;-69
2023/03/22 18:34:04;;;;;;;;;;;11.30;99.90;;;;;;8319455;28;19924;-69
2023/03/22 18:38:05;;;;;;;;;;;11.30;99.90;;;;;;8319304;28;20691;-69
2023/03/22 18:42:07;;;;;;;;;;;11.30;99.90;;;;;;8334664;28;19932;-69
2023/03/22 18:46:08;;;;;;;;;;;11.30;99.90;;;;;;8335810;28;19920;-69
2023/03/22 18:50:10;;;;;;;;;;;11.30;99.90;;;;;;8339679;28;20046;-69
2023/03/22 18:54:11;;;;;;;;;;;11.30;99.90;;;;;;8317308;28;20413;-68
2023/03/22 18:58:12;;;;;;;;;;;11.30;99.90;;;;;;8335306;28;20364;-69
2023/03/22 19:02:13;;;;;;;;;;;11.30;99.90;;;;;;8331295;28;20070;-69
2023/03/22 19:06:15;;;;;;;;;;;11.30;99.90;;;;;;8332022;28;20364;-69
2023/03/22 19:10:15;;;;;;;;;;;11.30;99.90;;;;;;8331422;28;19967;-69
2023/03/22 19:14:16;;;;;;;;;;;11.30;99.90;;;;;;8323606;28;19967;-69
2023/03/22 19:18:17;;;;;;;;;;;11.30;99.90;;;;;;8330965;28;20380;-70
2023/03/22 19:22:17;;;;;;;;;;;11.30;99.90;;;;;;8354228;28;19921;-69
2023/03/22 19:26:18;;;;;;;;;;;11.30;99.90;;;;;;8332422;28;20684;-70
2023/03/22 19:30:18;;;;;;;;;;;11.40;99.90;;;;;;8333079;28;21157;-69
2023/03/22 19:34:19;;;;;;;;;;;11.40;99.90;;;;;;8329987;28;20018;-69
2023/03/22 19:38:20;;;;;;;;;;;11.40;99.90;;;;;;8323186;28;20197;-69
2023/03/22 19:42:21;;;;;;;;;;;11.40;99.90;;;;;;8367282;28;19971;-69
2023/03/22 19:46:21;;;;;;;;;;;11.40;99.90;;;;;;8369278;28;19928;-69
2023/03/22 19:50:22;;;;;;;;;;;11.40;99.90;;;;;;8332917;28;19925;-69
2023/03/22 19:54:23;;;;;;;;;;;11.40;99.90;;;;;;8310741;28;20414;-69
2023/03/22 19:58:23;;;;;;;;;;;11.40;99.90;;;;;;8335477;28;20490;-69
2023/03/22 20:02:24;;;;;;;;;;;11.40;99.90;;;;;;8347552;28;19974;-69
2023/03/22 20:06:27;;;;;;;;;;;11.40;99.90;;;;;;8342474;28;19972;-69
2023/03/22 20:10:28;;;;;;;;;;;11.40;99.90;;;;;;8339995;28;20372;-69
2023/03/22 20:14:29;;;;;;;;;;;11.40;99.90;;;;;;8341399;28;20330;-69
2023/03/22 20:18:29;;;;;;;;;;;11.30;99.90;;;;;;8340409;28;20015;-68
2023/03/22 20:22:30;;;;;;;;;;;11.30;99.90;;;;;;8340814;28;20392;-69
2023/03/22 20:26:33;;;;;;;;;;;11.30;99.90;;;;;;8339561;28;19920;-69
2023/03/22 20:30:34;;;;;;;;;;;11.20;99.90;;;;;;8344366;28;20364;-68
2023/03/22 20:34:34;;;;;;;;;;;11.20;99.90;;;;;;8355353;28;20367;-69
2023/03/22 20:38:35;;;;;;;;;;;11.20;99.90;;;;;;8342710;28;19936;-68
2023/03/22 20:42:36;;;;;;;;;;;11.20;99.90;;;;;;8342205;28;19924;-68
2023/03/22 20:46:36;;;;;;;;;;;11.20;99.90;;;;;;8341691;28;20360;-68
2023/03/22 20:50:37;;;;;;;;;;;11.20;99.90;;;;;;8343944;28;19921;-68
2023/03/22 20:54:38;;;;;;;;;;;11.20;99.90;;;;;;8338081;28;19966;-68
2023/03/22 20:58:38;;;;;;;;;;;11.30;99.90;;;;;;8336791;28;19931;-69
2023/03/22 21:02:39;;;;;;;;;;;11.30;99.90;;;;;;8336555;28;20369;-69
2023/03/22 21:06:40;;;;;;;;;;;11.30;99.90;;;;;;8318114;28;19929;-68
2023/03/22 21:10:41;;;;;;;;;;;11.30;99.90;;;;;;8334768;28;20288;-69
2023/03/22 21:14:42;;;;;;;;;;;11.30;99.90;;;;;;8338214;28;19928;-68
2023/03/22 21:18:43;;;;;;;;;;;11.40;99.90;;;;;;8361786;28;19924;-69
2023/03/22 21:22:43;;;;;;;;;;;11.40;99.90;;;;;;8333593;28;20372;-68
2023/03/22 21:26:44;;;;;;;;;;;11.40;99.90;;;;;;8338833;28;19928;-69
2023/03/22 21:30:44;;;;;;;;;;;11.40;99.90;;;;;;8337651;28;19928;-68
2023/03/22 21:34:45;;;;;;;;;;;11.40;99.90;;;;;;8337548;28;20044;-69
2023/03/22 21:38:53;;;;;;;;;;;11.40;99.90;;;;;;8336755;28;19924;-69
2023/03/22 21:42:57;;;;;;;;;;;11.50;99.90;;;;;;8331619;28;19921;-69
2023/03/22 21:46:57;;;;;;;;;;;11.50;99.90;;;;;;8333283;28;20020;-69
2023/03/22 21:50:58;;;;;;;;;;;11.50;99.90;;;;;;8354482;28;19920;-68
2023/03/22 21:54:58;;;;;;;;;;;11.50;99.90;;;;;;8335208;28;20466;-68
2023/03/22 21:58:59;;;;;;;;;;;11.60;99.90;;;;;;8331450;28;20017;-69
2023/03/22 22:03:00;;;;;;;;;;;11.60;99.90;;;;;;8345754;28;19921;-69
2023/03/22 22:07:00;;;;;;;;;;;11.60;99.90;;;;;;8361124;28;20279;-69
2023/03/22 22:11:02;;;;;;;;;;;11.60;99.90;;;;;;8360256;28;19920;-68
2023/03/22 22:15:03;;;;;;;;;;;11.60;99.90;;;;;;8361423;28;19924;-69
2023/03/22 22:19:04;;;;;;;;;;;11.60;99.90;;;;;;8361799;28;19929;-69
2023/03/22 22:23:05;;;;;;;;;;;11.60;99.90;;;;;;8358103;28;20003;-69
2023/03/22 22:27:05;;;;;;;;;;;11.70;99.90;;;;;;8346991;28;19936;-69
2023/03/22 22:31:22;;;;;;;;;;;11.70;99.90;;;;;;8381799;28;19997;-69
2023/03/22 22:35:23;;;;;;;;;;;11.80;99.90;;;;;;8343728;28;20035;-69
2023/03/22 22:39:23;;;;;;;;;;;11.80;99.90;;;;;;8394066;28;19929;-69
2023/03/22 22:43:24;;;;;;;;;;;11.80;99.90;;;;;;8394149;28;20057;-69
2023/03/22 22:47:25;;;;;;;;;;;11.80;99.90;;;;;;8363328;28;19920;-69
2023/03/22 22:51:25;;;;;;;;;;;11.80;99.90;;;;;;8384942;28;19956;-69
2023/03/22 22:55:26;;;;;;;;;;;11.80;99.90;;;;;;8348655;28;19989;-69
2023/03/22 22:59:27;;;;;;;;;;;11.90;99.90;;;;;;8343603;28;20431;-69
2023/03/22 23:03:29;;;;;;;;;;;11.90;99.90;;;;;;8342713;28;20354;-69
2023/03/22 23:07:29;;;;;;;;;;;11.90;99.90;;;;;;8371794;28;19921;-69
2023/03/22 23:11:30;;;;;;;;;;;12.00;99.90;;;;;;8367124;28;19921;-69
2023/03/22 23:15:34;;;;;;;;;;;12.00;99.90;;;;;;8383586;28;19928;-69
2023/03/22 23:19:37;;;;;;;;;;;12.00;99.90;;;;;;8351235;28;19976;-69
2023/03/22 23:23:39;;;;;;;;;;;12.00;99.90;;;;;;8371464;28;20175;-69
2023/03/22 23:27:39;;;;;;;;;;;12.00;99.90;;;;;;8365541;28;20085;-69
2023/03/22 23:31:44;;;;;;;;;;;12.00;99.90;;;;;;8369499;28;19925;-69
2023/03/22 23:35:49;;;;;;;;;;;12.00;99.90;;;;;;8363575;28;19932;-69
2023/03/22 23:39:50;;;;;;;;;;;12.00;99.90;;;;;;8376577;28;20336;-69
2023/03/22 23:43:52;;;;;;;;;;;12.00;99.90;;;;;;8366873;28;20349;-69
2023/03/22 23:47:52;;;;;;;;;;;12.00;99.90;;;;;;8353151;28;20004;-69
2023/03/22 23:51:53;;;;;;;;;;;12.00;99.90;;;;;;8344580;28;19932;-69
2023/03/22 23:55:53;;;;;;;;;;;12.00;99.90;;;;;;8346323;28;19921;-69
2023/03/22 23:59:54;;;;;;;;;;;12.00;99.90;;;;;;8364556;28;20033;-69
